createdAt,value
2023-05-10T00:00:35.182Z,0.00
2023-05-10T00:01:35.161Z,0.00
2023-05-10T00:02:35.300Z,0.00
2023-05-10T00:03:35.218Z,0.00
2023-05-10T00:04:35.127Z,0.00
2023-05-10T00:05:35.109Z,0.00
2023-05-10T00:06:35.090Z,0.00
2023-05-10T00:07:35.097Z,0.00
2023-05-10T00:08:35.069Z,0.00
2023-05-10T00:09:35.069Z,0.00
2023-05-10T00:10:35.077Z,0.00
2023-05-10T00:11:35.096Z,0.00
2023-05-10T00:12:35.046Z,0.00
2023-05-10T00:13:35.015Z,0.00
2023-05-10T00:14:35.044Z,0.00
2023-05-10T00:15:35.026Z,0.00
2023-05-10T00:16:35.045Z,0.00
2023-05-10T00:17:34.992Z,0.00
2023-05-10T00:18:34.962Z,0.00
2023-05-10T00:19:34.964Z,0.00
2023-05-10T00:20:34.945Z,0.00
2023-05-10T00:21:34.940Z,0.00
2023-05-10T00:22:34.932Z,0.00
2023-05-10T00:23:34.932Z,0.00
2023-05-10T00:24:34.901Z,0.00
2023-05-10T00:25:34.900Z,0.00
2023-05-10T00:26:34.889Z,0.00
2023-05-10T00:27:34.890Z,0.00
2023-05-10T00:28:34.856Z,0.00
2023-05-10T00:29:34.910Z,0.00
2023-05-10T00:30:34.849Z,0.00
2023-05-10T00:31:34.888Z,0.00
2023-05-10T00:32:34.906Z,0.00
2023-05-10T00:33:34.801Z,0.00
2023-05-10T00:34:34.811Z,0.00
2023-05-10T00:35:34.777Z,0.00
2023-05-10T00:36:34.786Z,0.00
2023-05-10T00:37:34.770Z,0.00
2023-05-10T00:38:34.753Z,0.00
2023-05-10T00:39:34.762Z,0.00
2023-05-10T00:40:34.749Z,0.00
2023-05-10T00:41:34.736Z,0.00
2023-05-10T00:42:34.703Z,0.00
2023-05-10T00:43:34.692Z,0.00
2023-05-10T00:44:34.710Z,0.00
2023-05-10T00:45:34.706Z,0.00
2023-05-10T00:46:34.807Z,0.00
2023-05-10T00:47:34.719Z,0.00
2023-05-10T00:48:34.638Z,0.00
2023-05-10T00:49:34.625Z,0.00
2023-05-10T00:50:34.628Z,0.00
2023-05-10T00:51:34.603Z,0.00
2023-05-10T00:52:34.615Z,0.00
2023-05-10T00:53:34.589Z,0.00
2023-05-10T00:54:34.582Z,0.00
2023-05-10T00:55:42.349Z,0.00
2023-05-10T00:56:34.552Z,0.00
2023-05-10T00:57:34.540Z,0.00
2023-05-10T00:58:34.548Z,0.00
2023-05-10T00:59:34.534Z,0.00
2023-05-10T01:00:34.512Z,0.00
2023-05-10T01:01:34.515Z,0.00
2023-05-10T01:02:34.645Z,0.00
2023-05-10T01:03:34.637Z,0.00
2023-05-10T01:04:34.495Z,0.00
2023-05-10T01:05:34.447Z,0.00
2023-05-10T01:06:34.444Z,0.00
2023-05-10T01:07:34.446Z,0.00
2023-05-10T01:08:34.418Z,0.00
2023-05-10T01:09:34.427Z,0.00
2023-05-10T01:10:34.395Z,0.00
2023-05-10T01:11:34.384Z,0.00
2023-05-10T01:12:34.427Z,0.00
2023-05-10T01:13:34.359Z,0.00
2023-05-10T01:14:34.356Z,0.00
2023-05-10T01:15:34.413Z,0.00
2023-05-10T01:16:34.429Z,0.00
2023-05-10T01:17:34.371Z,0.00
2023-05-10T01:18:34.312Z,0.00
2023-05-10T01:19:34.313Z,0.00
2023-05-10T01:20:34.296Z,0.00
2023-05-10T01:21:34.288Z,0.00
2023-05-10T01:22:34.280Z,0.00
2023-05-10T01:23:34.269Z,0.00
2023-05-10T01:24:34.252Z,0.00
2023-05-10T01:25:34.266Z,0.00
2023-05-10T01:26:34.233Z,0.00
2023-05-10T01:27:34.244Z,0.00
2023-05-10T01:28:34.242Z,0.00
2023-05-10T01:29:34.188Z,0.00
2023-05-10T01:30:34.182Z,0.00
2023-05-10T01:31:34.279Z,0.00
2023-05-10T01:32:34.195Z,0.00
2023-05-10T01:33:34.166Z,0.00
2023-05-10T01:34:34.143Z,0.00
2023-05-10T01:35:34.176Z,0.00
2023-05-10T01:36:34.133Z,0.00
2023-05-10T01:37:34.118Z,0.00
2023-05-10T01:38:34.113Z,0.00
2023-05-10T01:39:34.092Z,0.00
2023-05-10T01:40:34.719Z,0.00
2023-05-10T01:41:34.054Z,0.00
2023-05-10T01:42:34.053Z,0.00
2023-05-10T01:43:34.051Z,0.00
2023-05-10T01:44:34.041Z,0.00
2023-05-10T01:45:34.005Z,0.00
2023-05-10T01:46:34.034Z,0.00
2023-05-10T01:47:34.011Z,0.00
2023-05-10T01:48:33.979Z,0.00
2023-05-10T01:49:33.994Z,0.00
2023-05-10T01:50:33.956Z,0.00
2023-05-10T01:51:33.981Z,0.00
2023-05-10T01:52:33.975Z,0.00
2023-05-10T01:53:33.931Z,0.00
2023-05-10T01:54:33.935Z,0.00
2023-05-10T01:55:33.897Z,0.00
2023-05-10T01:56:33.893Z,0.00
2023-05-10T01:57:33.890Z,0.00
2023-05-10T01:58:33.892Z,0.00
2023-05-10T01:59:33.884Z,0.00
2023-05-10T02:00:33.887Z,0.00
2023-05-10T02:01:33.831Z,0.00
2023-05-10T02:02:33.842Z,0.00
2023-05-10T02:03:33.869Z,0.00
2023-05-10T02:04:33.825Z,0.00
2023-05-10T02:05:33.801Z,0.00
2023-05-10T02:06:33.800Z,0.00
2023-05-10T02:07:33.803Z,0.00
2023-05-10T02:08:33.771Z,0.00
2023-05-10T02:09:33.772Z,0.00
2023-05-10T02:10:33.758Z,0.00
2023-05-10T02:11:33.727Z,0.00
2023-05-10T02:12:33.754Z,0.00
2023-05-10T02:13:33.700Z,0.00
2023-05-10T02:14:33.724Z,0.00
2023-05-10T02:15:33.692Z,0.00
2023-05-10T02:16:33.780Z,0.00
2023-05-10T02:17:33.708Z,0.00
2023-05-10T02:18:33.657Z,0.00
2023-05-10T02:19:33.654Z,0.00
2023-05-10T02:20:33.661Z,0.00
2023-05-10T02:21:33.639Z,0.00
2023-05-10T02:22:33.618Z,0.00
2023-05-10T02:23:33.689Z,0.00
2023-05-10T02:24:33.601Z,0.00
2023-05-10T02:25:33.584Z,0.00
2023-05-10T02:26:33.576Z,0.00
2023-05-10T02:27:33.550Z,0.00
2023-05-10T02:28:33.568Z,0.00
2023-05-10T02:29:33.543Z,0.00
2023-05-10T02:30:33.540Z,0.00
2023-05-10T02:31:33.520Z,0.00
2023-05-10T02:32:33.504Z,0.00
2023-05-10T02:33:33.487Z,0.00
2023-05-10T02:34:33.516Z,0.00
2023-05-10T02:35:33.465Z,0.00
2023-05-10T02:36:33.485Z,0.00
2023-05-10T02:37:33.460Z,0.00
2023-05-10T02:38:33.455Z,0.00
2023-05-10T02:39:33.490Z,0.00
2023-05-10T02:40:33.448Z,0.00
2023-05-10T02:41:33.424Z,0.00
2023-05-10T02:42:33.393Z,0.00
2023-05-10T02:43:33.379Z,0.00
2023-05-10T02:44:33.386Z,0.00
2023-05-10T02:45:33.374Z,0.00
2023-05-10T02:46:33.385Z,0.00
2023-05-10T02:47:33.449Z,0.00
2023-05-10T02:48:33.344Z,0.00
2023-05-10T02:49:33.336Z,0.00
2023-05-10T02:50:33.341Z,0.00
2023-05-10T02:51:33.297Z,0.00
2023-05-10T02:52:33.295Z,0.00
2023-05-10T02:53:33.281Z,0.00
2023-05-10T02:54:33.262Z,0.00
2023-05-10T02:55:33.320Z,0.00
2023-05-10T02:56:40.773Z,0.00
2023-05-10T02:57:33.241Z,0.00
2023-05-10T02:58:33.225Z,0.00
2023-05-10T02:59:33.205Z,0.00
2023-05-10T03:00:33.204Z,0.00
2023-05-10T03:01:33.233Z,0.00
2023-05-10T03:02:33.212Z,0.00
2023-05-10T03:03:33.162Z,0.00
2023-05-10T03:04:33.207Z,0.00
2023-05-10T03:05:33.166Z,0.00
2023-05-10T03:06:33.140Z,0.00
2023-05-10T03:07:33.121Z,0.00
2023-05-10T03:08:33.133Z,0.00
2023-05-10T03:09:33.125Z,0.00
2023-05-10T03:10:33.110Z,0.00
2023-05-10T03:11:33.132Z,0.00
2023-05-10T03:12:33.081Z,0.00
2023-05-10T03:13:33.161Z,0.00
2023-05-10T03:14:33.050Z,0.00
2023-05-10T03:15:33.051Z,0.00
2023-05-10T03:16:33.159Z,0.00
2023-05-10T03:17:33.047Z,0.00
2023-05-10T03:18:33.003Z,0.00
2023-05-10T03:19:32.988Z,0.00
2023-05-10T03:20:33.010Z,0.00
2023-05-10T03:21:32.998Z,0.00
2023-05-10T03:22:32.960Z,0.00
2023-05-10T03:23:32.975Z,0.00
2023-05-10T03:24:32.947Z,0.00
2023-05-10T03:25:32.928Z,0.00
2023-05-10T03:26:32.935Z,0.00
2023-05-10T03:27:33.015Z,0.00
2023-05-10T03:28:32.911Z,0.00
2023-05-10T03:29:32.882Z,0.00
2023-05-10T03:30:32.895Z,0.00
2023-05-10T03:31:32.906Z,0.00
2023-05-10T03:32:32.952Z,0.00
2023-05-10T03:33:32.856Z,0.00
2023-05-10T03:34:32.866Z,0.00
2023-05-10T03:35:32.839Z,0.00
2023-05-10T03:36:32.841Z,0.00
2023-05-10T03:37:32.795Z,0.00
2023-05-10T03:38:32.796Z,0.00
2023-05-10T03:39:32.776Z,0.00
2023-05-10T03:40:32.763Z,0.00
2023-05-10T03:41:32.767Z,0.00
2023-05-10T03:42:32.740Z,0.00
2023-05-10T03:43:32.764Z,0.00
2023-05-10T03:44:32.723Z,0.00
2023-05-10T03:45:32.711Z,0.00
2023-05-10T03:46:32.742Z,0.00
2023-05-10T03:47:32.723Z,0.00
2023-05-10T03:48:32.681Z,0.00
2023-05-10T03:49:32.677Z,0.00
2023-05-10T03:50:32.656Z,0.00
2023-05-10T03:51:32.652Z,0.00
2023-05-10T03:52:32.650Z,0.00
2023-05-10T03:53:32.638Z,0.00
2023-05-10T03:54:32.615Z,0.00
2023-05-10T03:55:32.626Z,0.00
2023-05-10T03:56:32.609Z,0.00
2023-05-10T03:57:32.607Z,0.00
2023-05-10T03:58:32.617Z,0.00
2023-05-10T03:59:32.577Z,0.00
2023-05-10T04:00:32.553Z,0.00
2023-05-10T04:01:32.556Z,0.00
2023-05-10T04:02:32.646Z,0.00
2023-05-10T04:03:32.661Z,0.00
2023-05-10T04:04:32.558Z,0.00
2023-05-10T04:05:32.510Z,0.00
2023-05-10T04:06:32.525Z,0.00
2023-05-10T04:07:32.485Z,0.00
2023-05-10T04:08:32.472Z,0.00
2023-05-10T04:09:32.468Z,5.62
2023-05-10T04:10:32.446Z,5.62
2023-05-10T04:11:32.434Z,5.62
2023-05-10T04:12:32.455Z,5.62
2023-05-10T04:13:32.416Z,5.62
2023-05-10T04:14:32.394Z,5.62
2023-05-10T04:15:32.402Z,5.62
2023-05-10T04:16:32.433Z,5.62
2023-05-10T04:17:32.394Z,5.62
2023-05-10T04:18:32.377Z,5.62
2023-05-10T04:19:32.354Z,5.62
2023-05-10T04:20:32.348Z,5.62
2023-05-10T04:21:32.340Z,11.25
2023-05-10T04:22:32.348Z,11.25
2023-05-10T04:23:32.332Z,11.25
2023-05-10T04:24:32.296Z,11.25
2023-05-10T04:25:32.283Z,11.25
2023-05-10T04:26:32.269Z,11.25
2023-05-10T04:27:32.300Z,11.25
2023-05-10T04:28:32.252Z,11.25
2023-05-10T04:29:32.233Z,11.25
2023-05-10T04:30:32.310Z,11.25
2023-05-10T04:31:32.240Z,11.25
2023-05-10T04:32:32.210Z,16.88
2023-05-10T04:33:32.210Z,22.50
2023-05-10T04:34:32.222Z,22.50
2023-05-10T04:35:32.188Z,22.50
2023-05-10T04:36:32.189Z,28.12
2023-05-10T04:37:32.178Z,22.50
2023-05-10T04:38:32.197Z,28.12
2023-05-10T04:39:32.192Z,28.12
2023-05-10T04:40:32.128Z,33.75
2023-05-10T04:41:32.117Z,33.75
2023-05-10T04:42:32.116Z,33.75
2023-05-10T04:43:32.096Z,39.38
2023-05-10T04:44:32.096Z,39.38
2023-05-10T04:45:32.066Z,39.38
2023-05-10T04:46:32.212Z,39.38
2023-05-10T04:47:32.079Z,39.38
2023-05-10T04:48:32.024Z,39.38
2023-05-10T04:49:32.021Z,39.38
2023-05-10T04:50:32.018Z,33.75
2023-05-10T04:51:31.992Z,28.12
2023-05-10T04:52:32.014Z,28.12
2023-05-10T04:53:31.990Z,33.75
2023-05-10T04:54:31.986Z,39.38
2023-05-10T04:55:31.963Z,45.00
2023-05-10T04:56:31.965Z,45.00
2023-05-10T04:57:39.459Z,50.62
2023-05-10T04:58:31.911Z,50.62
2023-05-10T04:59:31.920Z,50.62
2023-05-10T05:00:31.904Z,45.00
2023-05-10T05:01:31.937Z,50.62
2023-05-10T05:02:31.932Z,56.25
2023-05-10T05:03:32.020Z,56.25
2023-05-10T05:04:31.862Z,56.25
2023-05-10T05:05:31.851Z,56.25
2023-05-10T05:06:31.829Z,56.25
2023-05-10T05:07:31.842Z,56.25
2023-05-10T05:08:31.808Z,56.25
2023-05-10T05:09:31.805Z,56.25
2023-05-10T05:10:31.788Z,56.25
2023-05-10T05:11:31.816Z,56.25
2023-05-10T05:12:31.773Z,56.25
2023-05-10T05:13:31.812Z,61.88
2023-05-10T05:14:31.740Z,61.88
2023-05-10T05:15:31.747Z,61.88
2023-05-10T05:16:31.829Z,61.88
2023-05-10T05:17:31.717Z,56.25
2023-05-10T05:18:31.698Z,56.25
2023-05-10T05:19:31.714Z,56.25
2023-05-10T05:20:31.708Z,56.25
2023-05-10T05:21:31.672Z,61.88
2023-05-10T05:22:31.658Z,56.25
2023-05-10T05:23:31.741Z,56.25
2023-05-10T05:24:31.632Z,56.25
2023-05-10T05:25:31.645Z,56.25
2023-05-10T05:26:31.611Z,61.88
2023-05-10T05:27:31.600Z,61.88
2023-05-10T05:28:31.597Z,61.88
2023-05-10T05:29:31.587Z,56.25
2023-05-10T05:30:31.582Z,50.62
2023-05-10T05:31:31.619Z,45.00
2023-05-10T05:32:31.582Z,50.62
2023-05-10T05:33:31.541Z,45.00
2023-05-10T05:34:31.690Z,39.38
2023-05-10T05:35:31.537Z,45.00
2023-05-10T05:36:31.532Z,45.00
2023-05-10T05:37:31.516Z,50.62
2023-05-10T05:38:31.484Z,56.25
2023-05-10T05:39:31.491Z,56.25
2023-05-10T05:40:31.465Z,61.88
2023-05-10T05:41:31.460Z,61.88
2023-05-10T05:42:31.448Z,61.88
2023-05-10T05:43:31.430Z,50.62
2023-05-10T05:44:31.429Z,45.00
2023-05-10T05:45:31.422Z,45.00
2023-05-10T05:46:31.391Z,50.62
2023-05-10T05:47:31.445Z,56.25
2023-05-10T05:48:31.371Z,67.50
2023-05-10T05:49:31.385Z,73.12
2023-05-10T05:50:31.356Z,84.38
2023-05-10T05:51:31.405Z,90.00
2023-05-10T05:52:31.329Z,101.25
2023-05-10T05:53:31.325Z,101.25
2023-05-10T05:54:31.309Z,101.25
2023-05-10T05:55:31.308Z,101.25
2023-05-10T05:56:31.286Z,95.62
2023-05-10T05:57:31.276Z,95.62
2023-05-10T05:58:31.262Z,95.62
2023-05-10T05:59:31.252Z,90.00
2023-05-10T06:00:31.263Z,84.38
2023-05-10T06:01:31.234Z,84.38
2023-05-10T06:02:31.292Z,84.38
2023-05-10T06:03:31.332Z,78.75
2023-05-10T06:04:31.325Z,78.75
2023-05-10T06:05:31.192Z,73.12
2023-05-10T06:06:31.194Z,67.50
2023-05-10T06:07:31.814Z,67.50
2023-05-10T06:08:31.155Z,67.50
2023-05-10T06:09:31.157Z,67.50
2023-05-10T06:10:31.131Z,73.12
2023-05-10T06:11:31.130Z,73.12
2023-05-10T06:12:31.110Z,78.75
2023-05-10T06:13:31.219Z,84.38
2023-05-10T06:14:31.087Z,90.00
2023-05-10T06:15:31.081Z,90.00
2023-05-10T06:16:31.112Z,90.00
2023-05-10T06:17:31.093Z,84.38
2023-05-10T06:18:31.063Z,84.38
2023-05-10T06:19:31.036Z,84.38
2023-05-10T06:20:31.027Z,84.38
2023-05-10T06:21:31.023Z,84.38
2023-05-10T06:22:31.012Z,78.75
2023-05-10T06:23:31.026Z,73.12
2023-05-10T06:24:30.986Z,73.12
2023-05-10T06:25:32.264Z,78.75
2023-05-10T06:26:30.961Z,78.75
2023-05-10T06:27:30.959Z,73.12
2023-05-10T06:28:30.936Z,73.12
2023-05-10T06:29:30.929Z,67.50
2023-05-10T06:30:30.924Z,67.50
2023-05-10T06:31:30.974Z,67.50
2023-05-10T06:32:30.908Z,67.50
2023-05-10T06:33:30.896Z,67.50
2023-05-10T06:34:30.875Z,73.12
2023-05-10T06:35:30.880Z,78.75
2023-05-10T06:36:30.856Z,84.38
2023-05-10T06:37:30.865Z,90.00
2023-05-10T06:38:30.834Z,84.38
2023-05-10T06:39:30.868Z,78.75
2023-05-10T06:40:30.828Z,78.75
2023-05-10T06:41:30.808Z,90.00
2023-05-10T06:42:30.782Z,95.62
2023-05-10T06:43:30.816Z,112.50
2023-05-10T06:44:30.787Z,129.38
2023-05-10T06:45:30.772Z,140.62
2023-05-10T06:46:30.793Z,140.62
2023-05-10T06:47:30.778Z,146.25
2023-05-10T06:48:30.727Z,146.25
2023-05-10T06:49:30.713Z,129.38
2023-05-10T06:50:30.713Z,112.50
2023-05-10T06:51:30.714Z,106.88
2023-05-10T06:52:30.685Z,101.25
2023-05-10T06:53:30.683Z,106.88
2023-05-10T06:54:30.661Z,118.12
2023-05-10T06:55:30.686Z,123.75
2023-05-10T06:56:30.654Z,140.62
2023-05-10T06:57:32.012Z,157.50
2023-05-10T06:58:38.149Z,157.50
2023-05-10T06:59:30.646Z,151.88
2023-05-10T07:00:30.641Z,151.88
2023-05-10T07:01:30.641Z,151.88
2023-05-10T07:02:30.631Z,140.62
2023-05-10T07:03:30.551Z,135.00
2023-05-10T07:04:30.581Z,135.00
2023-05-10T07:05:30.579Z,140.62
2023-05-10T07:06:33.797Z,140.62
2023-05-10T07:07:30.511Z,140.62
2023-05-10T07:08:30.510Z,140.62
2023-05-10T07:09:30.485Z,157.50
2023-05-10T07:10:30.487Z,185.62
2023-05-10T07:11:30.487Z,213.75
2023-05-10T07:12:30.484Z,236.25
2023-05-10T07:13:30.460Z,241.88
2023-05-10T07:14:30.431Z,247.50
2023-05-10T07:15:30.438Z,253.12
2023-05-10T07:16:30.428Z,253.12
2023-05-10T07:17:30.502Z,247.50
2023-05-10T07:18:30.446Z,236.25
2023-05-10T07:19:30.396Z,219.38
2023-05-10T07:20:30.359Z,202.50
2023-05-10T07:21:30.421Z,219.38
2023-05-10T07:22:30.336Z,236.25
2023-05-10T07:23:30.348Z,230.62
2023-05-10T07:24:30.320Z,225.00
2023-05-10T07:25:30.314Z,230.62
2023-05-10T07:26:30.321Z,236.25
2023-05-10T07:27:30.312Z,230.62
2023-05-10T07:28:30.287Z,213.75
2023-05-10T07:29:30.281Z,213.75
2023-05-10T07:30:30.270Z,219.38
2023-05-10T07:31:30.303Z,213.75
2023-05-10T07:32:30.346Z,213.75
2023-05-10T07:33:30.223Z,185.62
2023-05-10T07:34:30.205Z,168.75
2023-05-10T07:35:30.213Z,163.12
2023-05-10T07:36:30.847Z,151.88
2023-05-10T07:37:30.176Z,129.38
2023-05-10T07:38:30.169Z,123.75
2023-05-10T07:39:30.157Z,123.75
2023-05-10T07:40:30.152Z,118.12
2023-05-10T07:41:30.130Z,118.12
2023-05-10T07:42:30.122Z,118.12
2023-05-10T07:43:30.149Z,140.62
2023-05-10T07:44:30.119Z,163.12
2023-05-10T07:45:30.143Z,196.88
2023-05-10T07:46:30.125Z,241.88
2023-05-10T07:47:30.142Z,281.25
2023-05-10T07:48:30.064Z,298.12
2023-05-10T07:49:30.059Z,303.75
2023-05-10T07:50:30.050Z,298.12
2023-05-10T07:51:30.033Z,298.12
2023-05-10T07:52:30.005Z,309.38
2023-05-10T07:53:30.015Z,331.88
2023-05-10T07:54:29.995Z,354.38
2023-05-10T07:55:29.976Z,376.88
2023-05-10T07:56:29.961Z,393.75
2023-05-10T07:57:29.972Z,393.75
2023-05-10T07:58:29.940Z,410.62
2023-05-10T07:59:29.963Z,427.50
2023-05-10T08:00:29.921Z,444.38
2023-05-10T08:01:29.907Z,410.62
2023-05-10T08:02:30.040Z,376.88
2023-05-10T08:03:30.008Z,315.00
2023-05-10T08:04:29.954Z,258.75
2023-05-10T08:05:29.885Z,219.38
2023-05-10T08:06:29.874Z,191.25
2023-05-10T08:07:29.843Z,196.88
2023-05-10T08:08:29.860Z,191.25
2023-05-10T08:09:29.844Z,191.25
2023-05-10T08:10:29.807Z,213.75
2023-05-10T08:11:29.811Z,236.25
2023-05-10T08:12:29.800Z,236.25
2023-05-10T08:13:29.778Z,253.12
2023-05-10T08:14:29.760Z,253.12
2023-05-10T08:15:29.778Z,247.50
2023-05-10T08:16:30.001Z,241.88
2023-05-10T08:17:29.756Z,230.62
2023-05-10T08:18:29.768Z,180.00
2023-05-10T08:19:29.730Z,146.25
2023-05-10T08:20:29.696Z,129.38
2023-05-10T08:21:29.711Z,129.38
2023-05-10T08:22:29.715Z,140.62
2023-05-10T08:23:29.690Z,151.88
2023-05-10T08:24:29.673Z,168.75
2023-05-10T08:25:29.650Z,185.62
2023-05-10T08:26:29.678Z,196.88
2023-05-10T08:27:29.637Z,230.62
2023-05-10T08:28:29.609Z,258.75
2023-05-10T08:29:32.777Z,241.88
2023-05-10T08:30:29.593Z,208.12
2023-05-10T08:31:29.864Z,180.00
2023-05-10T08:32:29.600Z,174.38
2023-05-10T08:33:29.562Z,180.00
2023-05-10T08:34:29.554Z,185.62
2023-05-10T08:35:29.546Z,185.62
2023-05-10T08:36:29.530Z,191.25
2023-05-10T08:37:29.517Z,213.75
2023-05-10T08:38:29.500Z,225.00
2023-05-10T08:39:30.700Z,225.00
2023-05-10T08:40:32.431Z,236.25
2023-05-10T08:41:29.482Z,247.50
2023-05-10T08:42:29.462Z,253.12
2023-05-10T08:43:29.508Z,270.00
2023-05-10T08:44:29.440Z,286.88
2023-05-10T08:45:29.424Z,320.62
2023-05-10T08:46:29.466Z,343.12
2023-05-10T08:47:29.461Z,365.62
2023-05-10T08:48:29.409Z,376.88
2023-05-10T08:49:29.403Z,376.88
2023-05-10T08:50:29.377Z,371.25
2023-05-10T08:51:29.378Z,360.00
2023-05-10T08:52:29.401Z,354.38
2023-05-10T08:53:29.342Z,354.38
2023-05-10T08:54:29.332Z,354.38
2023-05-10T08:55:29.342Z,354.38
2023-05-10T08:56:29.345Z,360.00
2023-05-10T08:57:29.313Z,360.00
2023-05-10T08:58:29.328Z,365.62
2023-05-10T08:59:37.868Z,371.25
2023-05-10T09:00:29.271Z,388.12
2023-05-10T09:01:29.366Z,427.50
2023-05-10T09:02:29.290Z,472.50
2023-05-10T09:03:29.291Z,517.50
2023-05-10T09:04:29.384Z,562.50
2023-05-10T09:05:29.278Z,630.00
2023-05-10T09:06:29.220Z,697.50
2023-05-10T09:07:29.207Z,826.88
2023-05-10T09:08:29.203Z,798.75
2023-05-10T09:09:29.175Z,731.25
2023-05-10T09:10:29.176Z,686.25
2023-05-10T09:11:29.171Z,691.88
2023-05-10T09:12:29.155Z,669.38
2023-05-10T09:13:29.164Z,675.00
2023-05-10T09:14:29.126Z,613.12
2023-05-10T09:15:29.471Z,545.62
2023-05-10T09:16:30.108Z,545.62
2023-05-10T09:17:29.199Z,551.25
2023-05-10T09:18:29.990Z,573.75
2023-05-10T09:19:29.169Z,545.62
2023-05-10T09:20:29.069Z,663.75
2023-05-10T09:21:29.104Z,753.75
2023-05-10T09:22:29.038Z,787.50
2023-05-10T09:23:29.033Z,832.50
2023-05-10T09:24:29.005Z,1068.75
2023-05-10T09:25:29.006Z,1091.25
2023-05-10T09:26:28.987Z,945.00
2023-05-10T09:27:28.988Z,860.62
2023-05-10T09:28:28.967Z,776.25
2023-05-10T09:29:28.956Z,703.12
2023-05-10T09:30:28.973Z,590.62
2023-05-10T09:31:29.005Z,826.88
2023-05-10T09:32:28.994Z,405.00
2023-05-10T09:33:28.908Z,309.38
2023-05-10T09:34:28.901Z,270.00
2023-05-10T09:35:29.866Z,348.75
2023-05-10T09:36:28.889Z,556.88
2023-05-10T09:37:28.924Z,793.12
2023-05-10T09:38:28.870Z,517.50
2023-05-10T09:39:28.868Z,900.00
2023-05-10T09:40:28.843Z,1051.88
2023-05-10T09:41:28.848Z,765.00
2023-05-10T09:42:28.817Z,1091.25
2023-05-10T09:43:28.799Z,1057.50
2023-05-10T09:44:28.809Z,1125.00
2023-05-10T09:45:28.790Z,1136.25
2023-05-10T09:46:28.814Z,1108.12
2023-05-10T09:47:28.851Z,1091.25
2023-05-10T09:48:28.775Z,1018.12
2023-05-10T09:49:28.761Z,1164.38
2023-05-10T09:50:28.739Z,1181.25
2023-05-10T09:51:28.747Z,939.38
2023-05-10T09:52:28.718Z,950.62
2023-05-10T09:53:28.700Z,1001.25
2023-05-10T09:54:28.685Z,1023.75
2023-05-10T09:55:28.682Z,939.38
2023-05-10T09:56:28.660Z,810.00
2023-05-10T09:57:28.650Z,703.12
2023-05-10T09:58:28.653Z,770.62
2023-05-10T09:59:28.641Z,1125.00
2023-05-10T10:00:28.638Z,1209.38
2023-05-10T10:01:28.625Z,1153.12
2023-05-10T10:02:28.613Z,1130.62
2023-05-10T10:03:30.337Z,1136.25
2023-05-10T10:04:28.675Z,990.00
2023-05-10T10:05:28.581Z,821.25
2023-05-10T10:06:30.381Z,787.50
2023-05-10T10:07:28.562Z,1029.38
2023-05-10T10:08:28.535Z,1006.88
2023-05-10T10:09:28.518Z,956.25
2023-05-10T10:10:28.505Z,939.38
2023-05-10T10:11:28.507Z,770.62
2023-05-10T10:12:28.494Z,776.25
2023-05-10T10:13:28.488Z,708.75
2023-05-10T10:14:28.487Z,551.25
2023-05-10T10:15:28.467Z,534.38
2023-05-10T10:16:28.540Z,551.25
2023-05-10T10:17:28.502Z,596.25
2023-05-10T10:18:28.535Z,714.38
2023-05-10T10:19:28.422Z,691.88
2023-05-10T10:20:28.403Z,658.12
2023-05-10T10:21:28.409Z,658.12
2023-05-10T10:22:28.383Z,669.38
2023-05-10T10:23:28.390Z,663.75
2023-05-10T10:24:28.364Z,703.12
2023-05-10T10:25:28.350Z,916.88
2023-05-10T10:26:28.352Z,1068.75
2023-05-10T10:27:28.319Z,905.62
2023-05-10T10:28:28.494Z,1040.62
2023-05-10T10:29:28.310Z,1113.75
2023-05-10T10:30:28.357Z,950.62
2023-05-10T10:31:28.297Z,624.38
2023-05-10T10:32:28.313Z,523.12
2023-05-10T10:33:29.108Z,466.88
2023-05-10T10:34:28.403Z,427.50
2023-05-10T10:35:28.239Z,416.25
2023-05-10T10:36:28.343Z,405.00
2023-05-10T10:37:28.215Z,388.12
2023-05-10T10:38:28.205Z,371.25
2023-05-10T10:39:28.208Z,371.25
2023-05-10T10:40:28.184Z,354.38
2023-05-10T10:41:28.169Z,326.25
2023-05-10T10:42:28.176Z,315.00
2023-05-10T10:43:28.171Z,309.38
2023-05-10T10:44:28.149Z,309.38
2023-05-10T10:45:28.166Z,309.38
2023-05-10T10:46:28.148Z,337.50
2023-05-10T10:47:28.140Z,376.88
2023-05-10T10:48:28.098Z,556.88
2023-05-10T10:49:28.118Z,843.75
2023-05-10T10:50:28.080Z,613.12
2023-05-10T10:51:28.073Z,675.00
2023-05-10T10:52:28.057Z,680.62
2023-05-10T10:53:28.081Z,720.00
2023-05-10T10:54:28.049Z,725.62
2023-05-10T10:55:28.040Z,748.12
2023-05-10T10:56:28.159Z,742.50
2023-05-10T10:57:28.001Z,680.62
2023-05-10T10:58:27.997Z,635.62
2023-05-10T10:59:27.974Z,579.38
2023-05-10T11:00:35.850Z,489.38
2023-05-10T11:01:28.028Z,427.50
2023-05-10T11:02:29.467Z,382.50
2023-05-10T11:03:27.928Z,343.12
2023-05-10T11:04:27.950Z,303.75
2023-05-10T11:05:27.940Z,270.00
2023-05-10T11:06:27.899Z,241.88
2023-05-10T11:07:27.899Z,213.75
2023-05-10T11:08:27.884Z,196.88
2023-05-10T11:09:27.869Z,185.62
2023-05-10T11:10:27.872Z,180.00
2023-05-10T11:11:27.865Z,185.62
2023-05-10T11:12:27.861Z,202.50
2023-05-10T11:13:27.817Z,225.00
2023-05-10T11:14:27.826Z,258.75
2023-05-10T11:15:27.798Z,286.88
2023-05-10T11:16:27.859Z,326.25
2023-05-10T11:17:27.930Z,365.62
2023-05-10T11:18:27.811Z,421.88
2023-05-10T11:19:28.161Z,483.75
2023-05-10T11:20:27.756Z,523.12
2023-05-10T11:21:27.737Z,568.12
2023-05-10T11:22:27.723Z,686.25
2023-05-10T11:23:27.712Z,736.88
2023-05-10T11:24:27.714Z,894.38
2023-05-10T11:25:27.727Z,810.00
2023-05-10T11:26:27.681Z,562.50
2023-05-10T11:27:27.710Z,500.62
2023-05-10T11:28:27.660Z,455.62
2023-05-10T11:29:27.666Z,427.50
2023-05-10T11:30:27.641Z,399.38
2023-05-10T11:31:28.003Z,382.50
2023-05-10T11:32:27.658Z,354.38
2023-05-10T11:33:27.609Z,337.50
2023-05-10T11:34:27.614Z,315.00
2023-05-10T11:35:27.609Z,298.12
2023-05-10T11:36:27.577Z,286.88
2023-05-10T11:37:27.577Z,264.38
2023-05-10T11:38:27.634Z,236.25
2023-05-10T11:39:27.558Z,208.12
2023-05-10T11:40:27.570Z,180.00
2023-05-10T11:41:27.535Z,157.50
2023-05-10T11:42:27.534Z,151.88
2023-05-10T11:43:27.520Z,151.88
2023-05-10T11:44:27.494Z,157.50
2023-05-10T11:45:27.490Z,157.50
2023-05-10T11:46:27.478Z,163.12
2023-05-10T11:47:28.578Z,168.75
2023-05-10T11:48:27.445Z,174.38
2023-05-10T11:49:27.505Z,185.62
2023-05-10T11:50:27.427Z,196.88
2023-05-10T11:51:27.424Z,208.12
2023-05-10T11:52:27.424Z,219.38
2023-05-10T11:53:27.391Z,219.38
2023-05-10T11:54:27.381Z,219.38
2023-05-10T11:55:27.390Z,219.38
2023-05-10T11:56:27.509Z,219.38
2023-05-10T11:57:27.365Z,225.00
2023-05-10T11:58:27.343Z,230.62
2023-05-10T11:59:27.380Z,230.62
2023-05-10T12:00:27.333Z,225.00
2023-05-10T12:01:27.330Z,225.00
2023-05-10T12:02:27.388Z,225.00
2023-05-10T12:03:27.503Z,225.00
2023-05-10T12:04:27.294Z,225.00
2023-05-10T12:05:27.297Z,225.00
2023-05-10T12:06:27.253Z,219.38
2023-05-10T12:07:27.316Z,213.75
2023-05-10T12:08:27.242Z,213.75
2023-05-10T12:09:42.589Z,213.75
2023-05-10T12:10:28.199Z,219.38
2023-05-10T12:11:27.212Z,219.38
2023-05-10T12:12:27.175Z,219.38
2023-05-10T12:13:27.166Z,219.38
2023-05-10T12:14:27.178Z,230.62
2023-05-10T12:15:27.160Z,236.25
2023-05-10T12:16:27.250Z,247.50
2023-05-10T12:17:27.132Z,253.12
2023-05-10T12:18:27.206Z,258.75
2023-05-10T12:19:27.112Z,258.75
2023-05-10T12:20:27.099Z,264.38
2023-05-10T12:21:27.080Z,270.00
2023-05-10T12:22:27.068Z,275.62
2023-05-10T12:23:27.052Z,286.88
2023-05-10T12:24:27.056Z,303.75
2023-05-10T12:25:27.063Z,315.00
2023-05-10T12:26:27.030Z,326.25
2023-05-10T12:27:27.081Z,331.88
2023-05-10T12:28:27.000Z,337.50
2023-05-10T12:29:27.063Z,354.38
2023-05-10T12:30:27.012Z,376.88
2023-05-10T12:31:27.020Z,399.38
2023-05-10T12:32:26.986Z,421.88
2023-05-10T12:33:26.948Z,478.12
2023-05-10T12:34:27.041Z,511.88
2023-05-10T12:35:26.926Z,399.38
2023-05-10T12:36:27.050Z,399.38
2023-05-10T12:37:26.905Z,410.62
2023-05-10T12:38:26.897Z,410.62
2023-05-10T12:39:26.939Z,410.62
2023-05-10T12:40:26.879Z,416.25
2023-05-10T12:41:26.858Z,427.50
2023-05-10T12:42:26.850Z,416.25
2023-05-10T12:43:27.462Z,427.50
2023-05-10T12:44:26.844Z,421.88
2023-05-10T12:45:26.981Z,433.12
2023-05-10T12:46:26.908Z,461.25
2023-05-10T12:47:26.873Z,472.50
2023-05-10T12:48:26.801Z,466.88